createdAt,value
2018-11-02T00:01:24.084Z,6.87
2018-11-02T00:03:51.709Z,6.03
2018-11-02T00:06:19.311Z,5.87
2018-11-02T00:08:46.893Z,7.23
2018-11-02T00:11:14.423Z,6.23
2018-11-02T00:13:41.928Z,6.17
2018-11-02T00:16:09.475Z,6.50
2018-11-02T00:18:36.994Z,6.40
2018-11-02T00:21:04.451Z,7.13
2018-11-02T00:23:32.411Z,6.67
2018-11-02T00:25:59.867Z,6.67
2018-11-02T00:28:27.419Z,6.20
2018-11-02T00:30:54.987Z,7.00
2018-11-02T00:33:22.499Z,6.70
2018-11-02T00:35:50.056Z,6.70
2018-11-02T00:38:17.620Z,6.93
2018-11-02T00:40:45.161Z,6.67
2018-11-02T00:43:12.708Z,7.00
2018-11-02T00:45:40.308Z,7.10
2018-11-02T00:48:08.490Z,6.73
2018-11-02T00:50:35.992Z,7.30
2018-11-02T00:53:03.925Z,7.07
2018-11-02T00:55:31.398Z,6.53
2018-11-02T00:57:58.877Z,6.87
2018-11-02T01:00:26.376Z,6.97
2018-11-02T01:02:53.917Z,7.50
2018-11-02T01:05:21.518Z,6.80
2018-11-02T01:07:49.117Z,7.00
2018-11-02T01:10:16.656Z,8.17
2018-11-02T01:12:44.340Z,6.17
2018-11-02T01:15:11.828Z,6.70
2018-11-02T01:17:39.332Z,7.20
2018-11-02T01:20:08.735Z,6.90
2018-11-02T01:22:36.232Z,6.17
2018-11-02T01:25:03.898Z,6.87
2018-11-02T01:27:31.449Z,7.03
2018-11-02T01:29:59.315Z,7.13
2018-11-02T01:32:26.821Z,6.63
2018-11-02T01:34:54.457Z,6.10
2018-11-02T01:37:21.982Z,6.17
2018-11-02T01:39:49.682Z,6.73
2018-11-02T01:42:17.248Z,6.97
2018-11-02T01:44:44.807Z,7.40
2018-11-02T01:47:12.287Z,6.97
2018-11-02T01:49:39.802Z,6.73
2018-11-02T01:52:07.460Z,7.10
2018-11-02T01:54:35.235Z,6.63
2018-11-02T01:57:02.699Z,7.13
2018-11-02T01:59:30.223Z,6.73
2018-11-02T02:01:57.820Z,6.97
2018-11-02T02:04:25.383Z,6.67
2018-11-02T02:06:52.907Z,6.87
2018-11-02T02:09:20.520Z,6.57
2018-11-02T02:11:47.899Z,6.70
2018-11-02T02:14:15.472Z,6.10
2018-11-02T02:16:42.973Z,6.67
2018-11-02T02:19:10.387Z,6.70
2018-11-02T02:21:37.900Z,7.30
2018-11-02T02:24:05.442Z,6.83
2018-11-02T02:26:33.017Z,7.10
2018-11-02T02:29:00.585Z,6.20
2018-11-02T02:31:28.298Z,6.80
2018-11-02T02:33:56.057Z,6.17
2018-11-02T02:36:23.633Z,5.80
2018-11-02T02:38:51.239Z,7.30
2018-11-02T02:41:18.870Z,6.63
2018-11-02T02:43:46.504Z,6.90
2018-11-02T02:46:14.067Z,7.50
2018-11-02T02:48:41.653Z,6.60
2018-11-02T02:51:09.385Z,6.57
2018-11-02T02:53:37.006Z,6.77
2018-11-02T02:56:05.344Z,6.30
2018-11-02T02:58:32.978Z,7.97
2018-11-02T03:01:00.499Z,7.10
2018-11-02T03:03:28.076Z,6.67
2018-11-02T03:05:55.764Z,6.67
2018-11-02T03:08:23.382Z,6.57
2018-11-02T03:10:51.228Z,6.43
2018-11-02T03:13:18.713Z,6.80
2018-11-02T03:15:46.330Z,6.50
2018-11-02T03:18:14.000Z,6.13
2018-11-02T03:20:41.600Z,6.63
2018-11-02T03:23:09.102Z,6.60
2018-11-02T03:25:36.860Z,6.40
2018-11-02T03:28:04.758Z,6.70
2018-11-02T03:30:32.388Z,6.60
2018-11-02T03:32:59.852Z,6.93
2018-11-02T03:35:27.462Z,6.27
2018-11-02T03:37:55.087Z,6.37
2018-11-02T03:40:22.672Z,6.73
2018-11-02T03:42:50.314Z,5.77
2018-11-02T03:45:17.969Z,6.13
2018-11-02T03:47:45.537Z,5.77
2018-11-02T03:50:13.100Z,6.30
2018-11-02T03:52:42.653Z,6.23
2018-11-02T03:55:10.293Z,6.83
2018-11-02T03:57:37.897Z,6.07
2018-11-02T04:00:06.856Z,6.30
2018-11-02T04:02:34.483Z,6.37
2018-11-02T04:05:02.033Z,6.47
2018-11-02T04:07:29.547Z,6.83
2018-11-02T04:09:57.103Z,6.63
2018-11-02T04:12:24.747Z,6.20
2018-11-02T04:14:52.357Z,6.80
2018-11-02T04:17:20.005Z,5.87
2018-11-02T04:19:47.587Z,6.50
2018-11-02T04:22:15.194Z,6.70
2018-11-02T04:24:42.894Z,6.30
2018-11-02T04:27:10.364Z,7.03
2018-11-02T04:29:38.051Z,7.23
2018-11-02T04:32:05.601Z,6.73
2018-11-02T04:34:33.257Z,6.33
2018-11-02T04:37:00.793Z,6.63
2018-11-02T04:39:28.410Z,8.60
2018-11-02T04:41:55.960Z,6.77
2018-11-02T04:44:23.495Z,6.67
2018-11-02T04:46:51.108Z,7.23
2018-11-02T04:49:18.657Z,7.17
2018-11-02T04:51:46.178Z,7.43
2018-11-02T04:54:13.809Z,6.90
2018-11-02T04:56:41.529Z,6.93
2018-11-02T04:59:09.247Z,6.93
2018-11-02T05:01:36.815Z,7.20
2018-11-02T05:04:04.879Z,6.27
2018-11-02T05:06:32.416Z,6.80
2018-11-02T05:09:00.041Z,7.10
2018-11-02T05:11:27.607Z,6.93
2018-11-02T05:13:55.264Z,7.43
2018-11-02T05:16:22.755Z,6.73
2018-11-02T05:18:50.421Z,7.17
2018-11-02T05:21:17.996Z,7.00
2018-11-02T05:23:45.556Z,6.70
2018-11-02T05:26:13.215Z,6.40
2018-11-02T05:28:40.822Z,6.53
2018-11-02T05:31:08.548Z,6.77
2018-11-02T05:33:36.133Z,5.97
2018-11-02T05:36:03.883Z,6.87
2018-11-02T05:38:31.448Z,6.90
2018-11-02T05:40:59.004Z,6.50
2018-11-02T05:43:26.505Z,6.50
2018-11-02T05:45:53.962Z,6.63
2018-11-02T05:48:21.568Z,6.33
2018-11-02T05:50:49.053Z,6.90
2018-11-02T05:53:16.571Z,7.40
2018-11-02T05:55:44.147Z,7.43
2018-11-02T05:58:11.632Z,7.13
2018-11-02T06:00:39.264Z,7.10
2018-11-02T06:03:06.830Z,7.10
2018-11-02T06:05:34.506Z,7.60
2018-11-02T06:08:02.230Z,7.63
2018-11-02T06:10:29.804Z,6.73
2018-11-02T06:12:57.410Z,7.67
2018-11-02T06:15:25.156Z,6.57
2018-11-02T06:17:52.840Z,6.70
2018-11-02T06:20:20.524Z,6.50
2018-11-02T06:22:48.171Z,7.10
2018-11-02T06:25:15.682Z,6.27
2018-11-02T06:27:43.321Z,6.13
2018-11-02T06:30:10.822Z,6.40
2018-11-02T06:32:38.645Z,6.80
2018-11-02T06:35:06.997Z,6.00
2018-11-02T06:37:34.595Z,6.50
2018-11-02T06:40:06.568Z,6.27
2018-11-02T06:42:34.065Z,6.80
2018-11-02T06:45:01.989Z,6.23
2018-11-02T06:47:29.534Z,6.90
2018-11-02T06:49:57.005Z,6.20
2018-11-02T06:52:24.682Z,6.90
2018-11-02T06:54:52.391Z,7.10
2018-11-02T06:57:20.029Z,6.60
2018-11-02T06:59:48.059Z,6.93
2018-11-02T07:02:15.120Z,7.10
2018-11-02T07:04:42.653Z,7.57
2018-11-02T07:07:10.285Z,7.07
2018-11-02T07:09:38.172Z,7.07
2018-11-02T07:12:05.644Z,7.23
2018-11-02T07:14:33.260Z,7.10
2018-11-02T07:17:00.949Z,7.77
2018-11-02T07:19:28.571Z,7.13
2018-11-02T07:21:56.181Z,6.90
2018-11-02T07:24:23.839Z,7.27
2018-11-02T07:26:51.552Z,7.10
2018-11-02T07:29:19.205Z,7.13
2018-11-02T07:31:46.701Z,6.53
2018-11-02T07:34:14.257Z,7.60
2018-11-02T07:36:41.734Z,7.87
2018-11-02T07:39:10.105Z,8.03
2018-11-02T07:41:37.764Z,8.63
2018-11-02T07:44:05.487Z,7.90
2018-11-02T07:46:33.203Z,8.23
2018-11-02T07:49:00.778Z,7.50
2018-11-02T07:51:28.431Z,7.87
2018-11-02T07:53:56.708Z,8.67
2018-11-02T07:56:24.371Z,8.43
2018-11-02T07:58:52.171Z,8.07
2018-11-02T08:01:19.871Z,10.63
2018-11-02T08:03:47.427Z,8.73
2018-11-02T08:06:14.867Z,9.57
2018-11-02T08:08:42.973Z,6.90
2018-11-02T08:11:10.660Z,8.93
2018-11-02T08:13:38.278Z,7.47
2018-11-02T08:16:05.838Z,7.00
2018-11-02T08:18:33.566Z,7.77
2018-11-02T08:21:01.228Z,7.00
2018-11-02T08:23:29.090Z,7.60
2018-11-02T08:25:56.609Z,7.17
2018-11-02T08:28:24.146Z,7.37
2018-11-02T08:30:51.651Z,6.53
2018-11-02T08:33:19.089Z,7.13
2018-11-02T08:35:46.839Z,7.07
2018-11-02T08:38:14.410Z,7.83
2018-11-02T08:40:43.071Z,6.63
2018-11-02T08:43:10.486Z,6.57
2018-11-02T08:45:38.316Z,6.87
2018-11-02T08:48:05.922Z,7.13
2018-11-02T08:50:33.463Z,7.27
2018-11-02T08:53:01.105Z,6.63
2018-11-02T08:55:28.655Z,7.77
2018-11-02T08:57:56.272Z,7.30
2018-11-02T09:00:23.867Z,7.50
2018-11-02T09:02:51.451Z,7.30
2018-11-02T09:05:18.985Z,6.67
2018-11-02T09:07:46.621Z,6.27
2018-11-02T09:10:14.176Z,7.00
2018-11-02T09:12:41.639Z,7.00
2018-11-02T09:15:09.345Z,7.70
2018-11-02T09:17:36.907Z,6.20
2018-11-02T09:20:04.564Z,7.20
2018-11-02T09:22:32.268Z,6.80
2018-11-02T09:25:00.117Z,7.03
2018-11-02T09:27:27.808Z,7.10
2018-11-02T09:29:55.265Z,6.37
2018-11-02T09:32:22.963Z,6.97
2018-11-02T09:34:50.514Z,6.87
2018-11-02T09:37:18.033Z,7.07
2018-11-02T09:39:45.535Z,7.33
2018-11-02T09:42:13.161Z,7.27
2018-11-02T09:44:40.660Z,8.23
2018-11-02T09:47:08.147Z,6.93
2018-11-02T09:49:35.635Z,7.63
2018-11-02T09:52:03.212Z,8.10
2018-11-02T09:54:30.667Z,9.23
2018-11-02T09:56:58.203Z,7.90
2018-11-02T09:59:25.615Z,8.37
2018-11-02T10:01:53.189Z,9.03
2018-11-02T10:04:20.748Z,8.73
2018-11-02T10:06:48.310Z,8.50
2018-11-02T10:09:15.883Z,9.50
2018-11-02T10:11:43.432Z,9.20
2018-11-02T10:14:11.444Z,9.77
2018-11-02T10:16:39.399Z,9.10
2018-11-02T10:19:07.966Z,9.33
2018-11-02T10:21:35.572Z,9.00
2018-11-02T10:24:03.213Z,9.83
2018-11-02T10:26:30.904Z,8.37
2018-11-02T10:28:58.579Z,9.47
2018-11-02T10:31:26.087Z,8.70
2018-11-02T10:33:53.884Z,8.87
2018-11-02T10:36:23.872Z,8.90
2018-11-02T10:38:52.313Z,8.73
2018-11-02T10:41:21.695Z,8.67
2018-11-02T10:43:49.745Z,9.00
2018-11-02T10:46:17.358Z,9.00
2018-11-02T10:48:44.992Z,9.00
2018-11-02T10:51:12.647Z,9.37
2018-11-02T10:53:40.199Z,9.60
2018-11-02T10:56:07.689Z,9.10
2018-11-02T10:58:35.255Z,10.60
2018-11-02T11:01:08.574Z,9.00
2018-11-02T11:03:36.107Z,9.17
2018-11-02T11:06:04.069Z,9.57
2018-11-02T11:08:31.599Z,10.03
2018-11-02T11:10:59.284Z,8.93
2018-11-02T11:13:27.196Z,8.77
2018-11-02T11:15:54.483Z,9.43
2018-11-02T11:18:22.095Z,10.63
2018-11-02T11:20:49.657Z,9.83
2018-11-02T11:23:17.194Z,9.70
2018-11-02T11:25:44.679Z,10.00
2018-11-02T11:28:12.211Z,10.03
2018-11-02T11:30:39.617Z,9.07
2018-11-02T11:33:08.367Z,8.93
2018-11-02T11:35:35.948Z,9.13
2018-11-02T11:38:03.481Z,8.63
2018-11-02T11:40:31.044Z,8.83
2018-11-02T11:42:58.614Z,8.70
2018-11-02T11:45:26.172Z,8.53
2018-11-02T11:47:53.802Z,8.43
2018-11-02T11:50:22.384Z,9.10
2018-11-02T11:52:50.848Z,9.27
2018-11-02T11:55:18.516Z,8.47
2018-11-02T11:57:46.131Z,8.63
2018-11-02T12:00:15.738Z,8.67
2018-11-02T12:02:44.037Z,8.80
2018-11-02T12:05:13.465Z,8.27
2018-11-02T12:07:41.305Z,8.63
2018-11-02T12:10:11.526Z,8.57
2018-11-02T12:12:39.036Z,8.53
2018-11-02T12:15:07.335Z,8.17
2018-11-02T12:17:34.852Z,8.10
2018-11-02T12:20:02.375Z,8.57
2018-11-02T12:22:29.942Z,9.33
2018-11-02T12:24:57.496Z,8.07
2018-11-02T12:27:25.655Z,8.90
2018-11-02T12:29:53.217Z,8.87
2018-11-02T12:32:21.752Z,8.43
2018-11-02T12:34:49.313Z,8.67
2018-11-02T12:37:17.191Z,8.33
2018-11-02T12:39:44.589Z,9.50
2018-11-02T12:42:12.084Z,7.97
2018-11-02T12:44:39.673Z,7.70
2018-11-02T12:47:07.314Z,8.27
2018-11-02T12:49:35.163Z,7.77
2018-11-02T12:52:02.441Z,8.50
2018-11-02T12:54:29.910Z,8.73
2018-11-02T12:56:57.348Z,9.30
2018-11-02T12:59:24.999Z,8.63
2018-11-02T13:01:52.605Z,7.77
2018-11-02T13:04:20.205Z,7.93
2018-11-02T13:06:47.731Z,8.30
2018-11-02T13:09:15.432Z,8.07
2018-11-02T13:11:43.140Z,8.23
2018-11-02T13:14:10.635Z,8.10
2018-11-02T13:16:38.164Z,7.77
2018-11-02T13:19:05.944Z,8.87
2018-11-02T13:21:33.565Z,7.23
2018-11-02T13:24:01.248Z,8.07
2018-11-02T13:26:29.065Z,7.60
2018-11-02T13:28:56.622Z,8.93
2018-11-02T13:31:24.170Z,7.90
2018-11-02T13:33:51.594Z,7.73
2018-11-02T13:36:19.059Z,7.13
2018-11-02T13:38:46.522Z,7.30
2018-11-02T13:41:14.044Z,9.00
2018-11-02T13:43:41.672Z,6.87
2018-11-02T13:46:09.037Z,7.00
2018-11-02T13:48:36.484Z,7.20
2018-11-02T13:51:04.110Z,7.37
2018-11-02T13:53:31.651Z,7.50
2018-11-02T13:55:59.167Z,7.10
2018-11-02T13:58:26.643Z,7.87
2018-11-02T14:00:54.256Z,7.33
2018-11-02T14:03:21.734Z,7.67
2018-11-02T14:05:49.219Z,7.73
2018-11-02T14:08:16.843Z,7.50
2018-11-02T14:10:44.369Z,7.30
2018-11-02T14:13:11.812Z,7.40
2018-11-02T14:15:39.367Z,7.40
2018-11-02T14:18:07.019Z,7.50
2018-11-02T14:20:34.569Z,7.00
2018-11-02T14:23:02.087Z,8.07
2018-11-02T14:25:29.561Z,7.07
2018-11-02T14:27:57.091Z,6.53
2018-11-02T14:30:24.868Z,8.53
2018-11-02T14:32:52.345Z,6.43
2018-11-02T14:35:20.004Z,5.80
2018-11-02T14:37:47.557Z,5.90
2018-11-02T14:40:15.170Z,5.57
2018-11-02T14:42:42.803Z,5.77
2018-11-02T14:45:12.904Z,6.20
2018-11-02T14:47:40.515Z,6.30
2018-11-02T14:50:13.275Z,5.30
2018-11-02T14:52:40.768Z,5.97
2018-11-02T14:55:08.648Z,5.30
2018-11-02T14:57:36.235Z,6.57
2018-11-02T15:00:05.298Z,5.53
2018-11-02T15:02:32.873Z,5.80
2018-11-02T15:07:46.056Z,5.33
2018-11-02T15:10:13.820Z,6.37
2018-11-02T15:12:41.498Z,5.20
2018-11-02T15:15:09.620Z,5.37
2018-11-02T15:17:38.042Z,5.87
2018-11-02T15:20:08.411Z,5.27
2018-11-02T15:22:36.237Z,5.43
2018-11-02T15:25:03.850Z,4.50
2018-11-02T15:27:31.368Z,4.67
2018-11-02T15:29:59.123Z,5.13
2018-11-02T15:32:26.671Z,4.70
2018-11-02T15:34:54.256Z,5.07
2018-11-02T15:37:21.770Z,4.90
2018-11-02T15:39:49.384Z,4.90
2018-11-02T15:42:16.857Z,5.00
2018-11-02T15:44:44.563Z,5.23
2018-11-02T15:47:11.966Z,5.17
2018-11-02T15:49:39.501Z,4.97
2018-11-02T15:52:07.176Z,4.60
2018-11-02T15:54:34.711Z,5.37
2018-11-02T15:57:02.227Z,4.90
2018-11-02T15:59:29.829Z,4.40
2018-11-02T16:01:57.367Z,6.17
2018-11-02T16:04:24.890Z,5.73
2018-11-02T16:06:52.542Z,6.17
2018-11-02T16:09:20.015Z,7.17
2018-11-02T16:11:47.450Z,6.40
2018-11-02T16:14:15.141Z,6.43
2018-11-02T16:16:42.657Z,7.27
2018-11-02T16:19:10.335Z,7.00
2018-11-02T16:21:38.505Z,7.40
2018-11-02T16:24:06.785Z,7.60
2018-11-02T16:26:34.255Z,7.87
2018-11-02T16:29:01.916Z,7.93
2018-11-02T16:31:29.443Z,8.53
2018-11-02T16:33:56.984Z,8.97
2018-11-02T16:36:24.541Z,9.47
2018-11-02T16:38:52.090Z,8.97
2018-11-02T16:41:19.561Z,8.50
2018-11-02T16:43:48.303Z,8.33
2018-11-02T16:46:16.726Z,9.53
2018-11-02T16:48:44.245Z,9.00
2018-11-02T16:51:11.679Z,9.00
2018-11-02T16:53:39.277Z,9.97
2018-11-02T16:56:06.969Z,9.60
2018-11-02T16:58:34.575Z,9.53
2018-11-02T17:01:02.123Z,9.27
2018-11-02T17:03:29.635Z,9.10
2018-11-02T17:05:57.362Z,10.80
2018-11-02T17:08:24.756Z,10.57
2018-11-02T17:10:52.240Z,10.43
2018-11-02T17:13:19.782Z,10.23
2018-11-02T17:15:47.300Z,10.50
2018-11-02T17:18:14.879Z,10.57
2018-11-02T17:20:42.371Z,10.47
2018-11-02T17:23:09.826Z,10.53
2018-11-02T17:25:37.320Z,10.60
2018-11-02T17:28:05.108Z,10.60
2018-11-02T17:30:32.642Z,10.67
2018-11-02T17:33:00.193Z,9.77
2018-11-02T17:35:27.644Z,10.70
2018-11-02T17:37:56.078Z,10.33
2018-11-02T17:40:23.576Z,12.43
2018-11-02T17:42:51.142Z,10.50
2018-11-02T17:45:18.643Z,11.17
2018-11-02T17:47:46.296Z,10.67
2018-11-02T17:50:14.430Z,11.37
2018-11-02T17:52:41.955Z,11.10
2018-11-02T17:55:09.549Z,11.63
2018-11-02T17:57:37.134Z,11.63
2018-11-02T18:00:06.315Z,11.00
2018-11-02T18:02:33.765Z,11.17
2018-11-02T18:05:01.340Z,11.57
2018-11-02T18:07:28.831Z,11.57
2018-11-02T18:09:56.320Z,12.03
2018-11-02T18:12:23.967Z,11.27
2018-11-02T18:14:51.424Z,11.17
2018-11-02T18:17:19.122Z,11.33
2018-11-02T18:19:50.383Z,11.53
2018-11-02T18:22:18.700Z,11.07
2018-11-02T18:24:46.144Z,10.90
2018-11-02T18:27:13.703Z,12.30
2018-11-02T18:29:41.134Z,11.97
2018-11-02T18:32:08.605Z,11.50
2018-11-02T18:34:36.232Z,11.07
2018-11-02T18:37:04.126Z,12.33
2018-11-02T18:39:31.559Z,11.27
2018-11-02T18:41:59.094Z,12.53
2018-11-02T18:44:26.926Z,12.47
2018-11-02T18:46:54.411Z,12.03
2018-11-02T18:49:21.963Z,12.50
2018-11-02T18:51:49.691Z,12.03
2018-11-02T18:54:17.194Z,12.80
2018-11-02T18:56:44.783Z,10.97
2018-11-02T18:59:12.558Z,12.47
2018-11-02T19:01:40.992Z,12.37
2018-11-02T19:04:08.636Z,13.40
2018-11-02T19:06:36.218Z,13.20
2018-11-02T19:09:05.675Z,13.50
2018-11-02T19:11:34.735Z,13.53
2018-11-02T19:14:02.413Z,12.90
2018-11-02T19:16:30.107Z,14.47
2018-11-02T19:18:57.756Z,13.43
2018-11-02T19:21:25.468Z,14.03
2018-11-02T19:23:53.048Z,13.43
2018-11-02T19:26:20.702Z,13.67
2018-11-02T19:28:48.347Z,13.03
2018-11-02T19:31:15.828Z,14.20
2018-11-02T19:33:43.409Z,13.10
2018-11-02T19:36:11.020Z,13.83
2018-11-02T19:38:39.474Z,13.73
2018-11-02T19:41:07.079Z,12.93
2018-11-02T19:43:34.670Z,13.57
2018-11-02T19:46:02.495Z,13.83
2018-11-02T19:48:30.255Z,13.47
2018-11-02T19:50:58.028Z,13.33
2018-11-02T19:53:25.687Z,13.23
2018-11-02T19:55:53.426Z,13.67
2018-11-02T19:58:21.117Z,13.37
2018-11-02T20:00:48.846Z,13.33
2018-11-02T20:03:16.297Z,13.87
2018-11-02T20:05:43.912Z,13.47
2018-11-02T20:08:11.529Z,13.17
2018-11-02T20:10:39.262Z,13.07
2018-11-02T20:13:07.055Z,13.20
2018-11-02T20:15:34.616Z,13.93
2018-11-02T20:18:02.252Z,13.00
2018-11-02T20:20:30.262Z,13.73
2018-11-02T20:22:57.966Z,13.40
2018-11-02T20:25:25.881Z,12.70
2018-11-02T20:27:53.496Z,12.27
2018-11-02T20:30:21.524Z,13.13
2018-11-02T20:32:49.196Z,12.63
2018-11-02T20:35:16.839Z,12.83
2018-11-02T20:37:44.372Z,12.77
2018-11-02T20:40:14.195Z,13.47
2018-11-02T20:42:42.841Z,13.17
2018-11-02T20:45:10.357Z,12.77
2018-11-02T20:47:43.661Z,12.40
2018-11-02T20:50:11.887Z,12.20
2018-11-02T20:52:40.027Z,12.43
2018-11-02T20:55:08.747Z,12.50
2018-11-02T20:57:37.164Z,13.33
2018-11-02T21:00:05.806Z,12.07
2018-11-02T21:02:33.516Z,12.73
2018-11-02T21:05:00.970Z,12.57
2018-11-02T21:07:28.628Z,13.33
2018-11-02T21:09:56.110Z,12.77
2018-11-02T21:12:23.715Z,13.07
2018-11-02T21:14:51.328Z,13.47
2018-11-02T21:17:18.872Z,12.77
2018-11-02T21:19:46.280Z,13.03
2018-11-02T21:22:14.725Z,12.63
2018-11-02T21:24:53.235Z,12.73
2018-11-02T21:27:20.935Z,12.80
2018-11-02T21:29:48.633Z,13.23
2018-11-02T21:32:16.257Z,12.77
2018-11-02T21:34:43.914Z,13.63
2018-11-02T21:37:12.116Z,12.63
2018-11-02T21:39:41.877Z,13.27
2018-11-02T21:42:09.826Z,12.60
2018-11-02T21:44:37.552Z,13.27
2018-11-02T21:47:05.670Z,12.40
2018-11-02T21:49:33.790Z,12.63
2018-11-02T21:52:01.519Z,11.70
2018-11-02T21:54:29.072Z,12.40
2018-11-02T21:56:56.641Z,11.60
2018-11-02T21:59:24.308Z,11.63
2018-11-02T22:01:51.910Z,12.17
2018-11-02T22:04:19.470Z,11.50
2018-11-02T22:06:47.000Z,12.07
2018-11-02T22:09:14.609Z,11.60
2018-11-02T22:11:42.180Z,11.43
2018-11-02T22:14:09.700Z,11.50
2018-11-02T22:16:37.312Z,12.10
2018-11-02T22:19:05.034Z,11.37
2018-11-02T22:21:32.576Z,10.93
2018-11-02T22:24:17.030Z,10.80
2018-11-02T22:26:44.556Z,11.13
2018-11-02T22:29:12.236Z,11.13
2018-11-02T22:31:40.094Z,11.63
2018-11-02T22:34:07.920Z,11.80
2018-11-02T22:36:35.583Z,11.67
2018-11-02T22:39:04.656Z,10.97
2018-11-02T22:41:32.119Z,11.00
2018-11-02T22:43:59.656Z,11.27
2018-11-02T22:46:27.194Z,11.73
2018-11-02T22:48:54.804Z,12.17
2018-11-02T22:51:22.426Z,11.27
2018-11-02T22:53:50.097Z,10.87
2018-11-02T22:56:17.670Z,11.20
2018-11-02T22:58:45.235Z,10.63
2018-11-02T23:01:18.389Z,10.73
2018-11-02T23:03:45.867Z,10.43
2018-11-02T23:06:13.396Z,10.93
2018-11-02T23:08:41.012Z,11.23
2018-11-02T23:11:08.673Z,10.90
2018-11-02T23:13:36.169Z,11.23
2018-11-02T23:16:03.963Z,11.33
2018-11-02T23:18:33.948Z,10.63
2018-11-02T23:21:01.623Z,10.87
2018-11-02T23:23:29.166Z,10.10
2018-11-02T23:25:56.735Z,10.67
2018-11-02T23:28:24.314Z,10.57
2018-11-02T23:30:51.897Z,10.60
2018-11-02T23:33:19.479Z,10.27
2018-11-02T23:35:47.114Z,9.87
2018-11-02T23:38:14.745Z,10.00
2018-11-02T23:40:42.281Z,10.50
2018-11-02T23:43:09.759Z,10.57
2018-11-02T23:45:37.263Z,10.87
2018-11-02T23:48:10.968Z,10.73
2018-11-02T23:50:38.501Z,10.00
2018-11-02T23:53:06.086Z,10.67
2018-11-02T23:55:33.663Z,9.60
2018-11-02T23:58:01.247Z,9.37
